Time;durP1;ratioP1;P1;durP2;ratioP2;P2;SDS_P1;SDS_P2;PMS_P1;PMS_P2;Temp;Humidity;BMP_temperature;BMP_pressure;BME280_temperature;BME280_humidity;BME280_pressure;Samples;Min_cycle;Max_cycle;Signal;HPM_P1;HPM_P2
2023/04/30 00:00:37;;;;;;;12.80;8.82;;;;;;;10.24;100.00;98587.59;2567271;28;20073;-90
2023/04/30 00:02:13;;;;;;;15.05;9.02;;;;;;;10.40;100.00;98588.09;2569604;28;20089;-89
2023/04/30 00:03:28;;;;;;;14.60;8.77;;;;;;;10.27;100.00;98591.03;2569023;28;20070;-89
2023/04/30 00:04:44;;;;;;;14.73;9.30;;;;;;;10.35;100.00;98592.59;2570129;28;20063;-91
2023/04/30 00:06:00;;;;;;;15.80;9.68;;;;;;;10.29;100.00;98593.63;2569227;28;20490;-90
2023/04/30 00:07:15;;;;;;;16.02;8.90;;;;;;;10.12;100.00;98594.00;2570260;28;20059;-89
2023/04/30 00:08:31;;;;;;;12.60;8.68;;;;;;;10.22;100.00;98590.28;2569378;28;20051;-89
2023/04/30 00:09:46;;;;;;;13.15;8.70;;;;;;;10.10;100.00;98587.97;2569984;28;20078;-90
2023/04/30 00:11:02;;;;;;;15.30;9.25;;;;;;;10.32;100.00;98593.53;2569251;28;20156;-89
2023/04/30 00:12:17;;;;;;;18.77;9.23;;;;;;;10.35;100.00;98590.00;2569913;28;20105;-90
2023/04/30 00:13:33;;;;;;;14.95;9.32;;;;;;;10.31;100.00;98589.19;2569186;28;20145;-89
2023/04/30 00:14:49;;;;;;;14.32;8.50;;;;;;;10.24;100.00;98593.72;2570083;28;20485;-89
2023/04/30 00:16:04;;;;;;;16.67;9.20;;;;;;;10.18;100.00;98591.22;2569193;28;20140;-91
2023/04/30 00:17:20;;;;;;;14.85;9.25;;;;;;;10.16;100.00;98593.03;2569755;28;20059;-89
2023/04/30 00:18:37;;;;;;;14.10;9.57;;;;;;;9.93;100.00;98591.84;2569324;28;20125;-89
2023/04/30 00:19:52;;;;;;;15.20;9.40;;;;;;;10.01;100.00;98589.88;2579402;28;20049;-90
2023/04/30 00:21:08;;;;;;;13.98;8.93;;;;;;;9.86;100.00;98591.13;2574907;28;20524;-89
2023/04/30 00:22:24;;;;;;;14.15;8.80;;;;;;;9.97;100.00;98592.59;2569744;28;20054;-89
2023/04/30 00:23:39;;;;;;;13.13;9.02;;;;;;;10.09;100.00;98591.47;2569124;28;20506;-90
2023/04/30 00:24:55;;;;;;;12.88;8.63;;;;;;;10.35;100.00;98593.44;2570134;28;20506;-89
2023/04/30 00:26:11;;;;;;;12.77;8.23;;;;;;;10.37;100.00;98590.81;2570064;28;20047;-90
2023/04/30 00:27:26;;;;;;;14.07;9.25;;;;;;;10.37;100.00;98591.66;2570897;28;20055;-89
2023/04/30 00:28:42;;;;;;;13.35;9.05;;;;;;;10.49;100.00;98594.91;2569535;28;20490;-89
2023/04/30 00:29:58;;;;;;;13.82;9.15;;;;;;;10.36;100.00;98594.31;2569420;28;20097;-89
2023/04/30 00:31:13;;;;;;;14.05;9.52;;;;;;;10.37;100.00;98598.66;2569478;28;20046;-89
2023/04/30 00:32:29;;;;;;;13.88;8.80;;;;;;;10.25;100.00;98594.56;2569245;28;20071;-89
2023/04/30 00:33:45;;;;;;;14.23;9.38;;;;;;;10.41;100.00;98593.34;2569644;28;20066;-89
2023/04/30 00:35:00;;;;;;;16.13;9.70;;;;;;;10.56;100.00;98597.31;2568898;28;20061;-88
2023/04/30 00:36:15;;;;;;;13.63;7.93;;;;;;;10.64;100.00;98596.28;2569743;28;20055;-91
2023/04/30 00:37:31;;;;;;;13.82;8.80;;;;;;;10.67;100.00;98589.19;2569449;28;20110;-90
2023/04/30 00:38:47;;;;;;;16.50;8.93;;;;;;;10.68;100.00;98585.66;2570198;28;20590;-90
2023/04/30 00:40:03;;;;;;;13.85;9.27;;;;;;;10.69;100.00;98592.63;2578368;28;20050;-91
2023/04/30 00:41:19;;;;;;;13.30;8.27;;;;;;;10.56;100.00;98589.47;2575296;28;20422;-89
2023/04/30 00:42:35;;;;;;;12.98;8.38;;;;;;;10.62;100.00;98591.06;2569096;28;20082;-88
2023/04/30 00:43:50;;;;;;;12.55;8.48;;;;;;;10.63;100.00;98591.94;2569618;28;20070;-89
2023/04/30 00:45:07;;;;;;;14.57;8.88;;;;;;;10.64;100.00;98598.91;2569249;28;20059;-90
2023/04/30 00:46:22;;;;;;;15.85;9.40;;;;;;;10.55;100.00;98592.97;2570017;28;20051;-90
2023/04/30 00:47:38;;;;;;;12.23;9.00;;;;;;;10.44;100.00;98589.78;2568864;28;20055;-89
2023/04/30 00:48:53;;;;;;;14.95;9.00;;;;;;;10.49;100.00;98595.78;2569500;28;20423;-91
2023/04/30 00:50:09;;;;;;;15.13;9.77;;;;;;;10.55;100.00;98592.97;2569276;28;20059;-90
2023/04/30 00:51:25;;;;;;;13.68;9.63;;;;;;;10.58;100.00;98592.91;2569638;28;20059;-90
2023/04/30 00:52:42;;;;;;;13.95;9.52;;;;;;;10.64;100.00;98591.03;2568675;28;20090;-89
2023/04/30 00:54:01;;;;;;;15.18;9.75;;;;;;;10.63;100.00;98592.78;2569732;28;20050;-89
2023/04/30 00:55:17;;;;;;;14.25;9.30;;;;;;;10.60;100.00;98587.63;2569210;28;20161;-89
2023/04/30 00:56:33;;;;;;;12.50;9.30;;;;;;;10.58;100.00;98594.66;2578637;28;20125;-90
2023/04/30 00:57:49;;;;;;;12.02;9.00;;;;;;;10.63;100.00;98594.56;2574402;28;20054;-91
2023/04/30 00:59:04;;;;;;;20.88;11.10;;;;;;;10.69;100.00;98597.88;2569810;28;20081;-89
2023/04/30 01:00:21;;;;;;;14.23;9.38;;;;;;;10.72;100.00;98591.69;2568999;28;20134;-89
2023/04/30 01:01:37;;;;;;;14.50;10.07;;;;;;;10.69;100.00;98597.00;2569719;28;20509;-89
2023/04/30 01:02:54;;;;;;;14.85;9.38;;;;;;;10.40;100.00;98595.94;2558378;29;20062;-90
2023/04/30 01:04:11;;;;;;;12.80;9.02;;;;;;;10.04;100.00;98587.19;2563163;28;20123;-89
2023/04/30 01:05:26;;;;;;;12.25;8.13;;;;;;;9.82;100.00;98594.66;2568807;28;20054;-90
2023/04/30 01:06:42;;;;;;;11.70;8.07;;;;;;;9.92;100.00;98595.34;2568831;28;20078;-89
2023/04/30 01:07:58;;;;;;;15.02;8.25;;;;;;;9.75;100.00;98596.56;2569447;28;20062;-89
2023/04/30 01:09:13;;;;;;;12.88;8.75;;;;;;;9.83;100.00;98590.31;2558025;29;20066;-90
2023/04/30 01:10:35;;;;;;;12.82;8.68;;;;;;;9.85;100.00;98597.25;2563081;28;20058;-89
2023/04/30 01:12:12;;;;;;;13.77;8.80;;;;;;;9.91;100.00;98598.81;2568700;28;20137;-91
2023/04/30 01:13:43;;;;;;;13.68;9.07;;;;;;;10.15;100.00;98605.28;2567463;28;20105;-89
2023/04/30 01:15:17;;;;;;;12.77;8.95;;;;;;;10.40;100.00;98599.41;2568966;28;20098;-89
2023/04/30 01:16:40;;;;;;;13.98;9.32;;;;;;;10.56;100.00;98610.41;2568941;28;20223;-90
2023/04/30 01:18:16;;;;;;;12.60;9.25;;;;;;;10.15;100.00;98607.00;2568965;28;20055;-88
2023/04/30 01:19:35;;;;;;;16.20;9.63;;;;;;;10.02;100.00;98609.06;2568397;28;20070;-89
2023/04/30 01:21:01;;;;;;;13.98;8.90;;;;;;;10.08;100.00;98611.53;2569270;28;20074;-89
2023/04/30 01:22:27;;;;;;;14.48;9.75;;;;;;;10.23;100.00;98609.44;2568454;28;20055;-89
2023/04/30 01:23:55;;;;;;;11.75;8.77;;;;;;;10.36;100.00;98607.41;2568934;28;20868;-91
2023/04/30 01:25:32;;;;;;;15.80;9.90;;;;;;;10.18;100.00;98607.81;2568993;28;20167;-90
2023/04/30 01:27:06;;;;;;;15.57;10.40;;;;;;;10.41;100.00;98605.56;2568187;28;20066;-89
2023/04/30 01:28:23;;;;;;;15.95;10.68;;;;;;;10.34;100.00;98599.56;2569369;28;20058;-89
2023/04/30 01:29:41;;;;;;;15.20;10.63;;;;;;;10.41;100.00;98602.94;2568696;28;20059;-89
2023/04/30 01:30:57;;;;;;;17.48;11.27;;;;;;;10.51;100.00;98603.56;2568694;28;20065;-88
2023/04/30 01:32:12;;;;;;;15.10;10.07;;;;;;;10.56;100.00;98602.56;2568383;28;20051;-90
2023/04/30 01:33:28;;;;;;;15.07;10.25;;;;;;;10.33;100.00;98610.94;2569300;28;20055;-90
2023/04/30 01:34:44;;;;;;;18.20;9.25;;;;;;;9.80;100.00;98606.91;2568139;28;20066;-89
2023/04/30 01:36:08;;;;;;;13.32;9.32;;;;;;;9.81;100.00;98607.78;2568624;28;20062;-89
2023/04/30 01:37:36;;;;;;;15.00;10.20;;;;;;;9.89;100.00;98606.72;2568532;28;20686;-90
2023/04/30 01:38:57;;;;;;;14.48;9.45;;;;;;;10.31;100.00;98610.97;2569156;28;20051;-90
2023/04/30 01:40:39;;;;;;;14.65;9.40;;;;;;;10.12;100.00;98614.94;2568400;28;20149;-91
2023/04/30 01:42:01;;;;;;;14.25;9.05;;;;;;;10.38;100.00;98614.31;2569420;28;20082;-90
2023/04/30 01:43:48;;;;;;;18.05;11.10;;;;;;;10.37;100.00;98620.44;2568215;28;20047;-90
2023/04/30 01:45:13;;;;;;;16.85;10.57;;;;;;;10.37;100.00;98624.81;2568596;28;20062;-88
2023/04/30 01:46:29;;;;;;;17.27;11.02;;;;;;;10.30;100.00;98624.13;2569151;28;20109;-89
2023/04/30 01:47:50;;;;;;;19.17;12.05;;;;;;;10.21;100.00;98619.97;2568407;28;20059;-89
2023/04/30 01:49:23;;;;;;;20.63;12.00;;;;;;;10.27;100.00;98617.19;2569286;28;20058;-89
2023/04/30 01:50:56;;;;;;;18.83;11.25;;;;;;;10.26;100.00;98625.94;2568493;28;20206;-90
2023/04/30 01:52:19;;;;;;;19.80;12.32;;;;;;;10.46;100.00;98627.22;2568676;28;20084;-89
2023/04/30 01:53:43;;;;;;;16.17;11.20;;;;;;;10.53;100.00;98625.31;2568309;28;20446;-88
2023/04/30 01:55:10;;;;;;;21.13;11.57;;;;;;;10.68;100.00;98626.72;2568999;28;20058;-89
2023/04/30 01:56:38;;;;;;;16.13;11.40;;;;;;;10.67;100.00;98630.22;2568069;28;20984;-90
2023/04/30 01:57:59;;;;;;;16.33;11.20;;;;;;;10.74;100.00;98634.41;2569297;28;20105;-90
2023/04/30 01:59:16;;;;;;;18.77;12.43;;;;;;;10.77;100.00;98634.34;2568644;28;20082;-90
2023/04/30 02:00:32;;;;;;;16.52;11.65;;;;;;;10.76;100.00;98635.25;2568971;28;20153;-90
2023/04/30 02:01:48;;;;;;;18.38;12.00;;;;;;;10.78;100.00;98637.81;2568161;28;20129;-89
2023/04/30 02:03:03;;;;;;;18.02;12.02;;;;;;;10.61;100.00;98641.72;2569644;28;20058;-90
2023/04/30 02:04:19;;;;;;;21.52;12.98;;;;;;;10.80;100.00;98636.88;2568260;28;20054;-88
2023/04/30 02:05:34;;;;;;;17.52;10.82;;;;;;;10.95;100.00;98634.75;2568916;28;20051;-89
2023/04/30 02:06:50;;;;;;;18.88;11.55;;;;;;;10.96;100.00;98636.47;2568548;28;20059;-89
2023/04/30 02:08:06;;;;;;;16.92;11.23;;;;;;;10.95;100.00;98645.22;2568980;28;20065;-90
2023/04/30 02:09:22;;;;;;;16.58;10.63;;;;;;;10.98;100.00;98647.75;2568095;28;20497;-89
2023/04/30 02:10:38;;;;;;;18.60;11.70;;;;;;;11.00;100.00;98643.34;2569117;28;20059;-89
2023/04/30 02:11:54;;;;;;;17.60;11.35;;;;;;;10.87;100.00;98643.66;2568387;28;20058;-89
2023/04/30 02:13:09;;;;;;;17.60;11.70;;;;;;;10.94;100.00;98648.75;2568731;28;20055;-89
2023/04/30 02:14:26;;;;;;;18.75;11.40;;;;;;;10.87;100.00;98646.28;2557604;29;20499;-90
2023/04/30 02:15:41;;;;;;;16.00;11.32;;;;;;;10.95;100.00;98650.47;2562836;28;20055;-89
2023/04/30 02:16:57;;;;;;;16.10;10.82;;;;;;;10.99;100.00;98649.47;2568486;28;20059;-89
2023/04/30 02:18:13;;;;;;;18.60;11.93;;;;;;;10.97;100.00;98654.78;2569096;28;20051;-89
2023/04/30 02:19:28;;;;;;;16.75;11.32;;;;;;;10.97;100.00;98652.16;2569126;28;20082;-90
2023/04/30 02:20:44;;;;;;;15.35;11.10;;;;;;;10.94;100.00;98656.63;2569313;28;20062;-89
2023/04/30 02:21:59;;;;;;;15.50;11.20;;;;;;;10.93;100.00;98650.50;2568002;28;20093;-89
2023/04/30 02:23:15;;;;;;;15.35;11.18;;;;;;;11.00;100.00;98659.06;2569104;28;20490;-90
2023/04/30 02:24:30;;;;;;;18.35;12.10;;;;;;;10.88;100.00;98652.38;2568456;28;20098;-88
2023/04/30 02:25:46;;;;;;;17.02;11.13;;;;;;;10.86;100.00;98659.44;2568782;28;20133;-89
2023/04/30 02:27:01;;;;;;;16.67;11.07;;;;;;;10.81;100.00;98653.44;2568143;28;20537;-88
2023/04/30 02:28:17;;;;;;;16.88;11.75;;;;;;;10.85;100.00;98661.19;2569167;28;20354;-88
2023/04/30 02:29:33;;;;;;;17.58;11.13;;;;;;;10.78;100.00;98659.63;2568403;28;20055;-88
2023/04/30 02:30:48;;;;;;;17.55;11.75;;;;;;;10.73;100.00;98659.75;2568101;28;20098;-88
2023/04/30 02:32:04;;;;;;;14.75;10.48;;;;;;;10.65;100.00;98663.44;2568549;28;20967;-90
2023/04/30 02:33:19;;;;;;;14.55;9.52;;;;;;;10.65;100.00;98663.44;2568103;28;20505;-89
2023/04/30 02:34:35;;;;;;;17.15;10.77;;;;;;;10.74;100.00;98660.59;2568722;28;20138;-89
2023/04/30 02:35:50;;;;;;;14.55;10.15;;;;;;;10.79;100.00;98655.22;2568130;28;20062;-90
2023/04/30 02:37:07;;;;;;;14.57;10.10;;;;;;;10.72;100.00;98665.00;2569142;28;20473;-89
2023/04/30 02:38:22;;;;;;;13.55;9.80;;;;;;;10.62;100.00;98664.38;2568061;28;20057;-89
2023/04/30 02:39:38;;;;;;;12.98;9.43;;;;;;;10.60;100.00;98668.78;2558005;29;20563;-89
2023/04/30 02:40:53;;;;;;;15.57;9.25;;;;;;;10.47;100.00;98665.59;2561911;28;20054;-90
2023/04/30 02:42:10;;;;;;;13.43;9.10;;;;;;;10.20;100.00;98664.47;2568899;28;20126;-89
2023/04/30 02:43:25;;;;;;;16.90;10.60;;;;;;;10.08;100.00;98661.22;2567882;28;20070;-89
2023/04/30 02:44:41;;;;;;;13.98;9.77;;;;;;;10.23;100.00;98662.66;2568491;28;20047;-89
2023/04/30 02:45:56;;;;;;;17.38;10.90;;;;;;;10.21;100.00;98664.44;2568277;28;20055;-89
2023/04/30 02:47:12;;;;;;;14.05;10.05;;;;;;;10.32;100.00;98664.19;2568757;28;20055;-89
2023/04/30 02:48:28;;;;;;;15.27;9.70;;;;;;;10.18;100.00;98667.09;2567922;28;20105;-91
2023/04/30 02:49:43;;;;;;;14.40;10.65;;;;;;;10.08;100.00;98673.47;2568981;28;20059;-89
2023/04/30 02:50:59;;;;;;;14.32;10.02;;;;;;;10.12;100.00;98675.94;2567994;28;20055;-90
2023/04/30 02:52:14;;;;;;;15.95;10.65;;;;;;;10.12;100.00;98673.34;2568634;28;20094;-90
2023/04/30 02:53:30;;;;;;;17.30;11.15;;;;;;;10.26;100.00;98674.78;2567765;28;20050;-88
2023/04/30 02:54:45;;;;;;;20.30;11.40;;;;;;;10.13;100.00;98675.09;2568774;28;20059;-89
2023/04/30 02:56:01;;;;;;;16.52;11.23;;;;;;;10.24;100.00;98669.59;2567615;28;20085;-89
2023/04/30 02:57:17;;;;;;;15.35;10.63;;;;;;;10.18;100.00;98677.56;2568688;28;20059;-89
2023/04/30 02:58:32;;;;;;;15.98;10.77;;;;;;;10.34;100.00;98679.84;2568311;28;20572;-90
2023/04/30 02:59:48;;;;;;;15.98;10.35;;;;;;;10.29;100.00;98672.13;2568493;28;20174;-89
2023/04/30 03:01:04;;;;;;;16.55;10.63;;;;;;;9.99;100.00;98680.59;2568030;28;20051;-90
2023/04/30 03:02:20;;;;;;;17.65;11.32;;;;;;;9.93;100.00;98677.25;2568196;28;20050;-89
2023/04/30 03:03:36;;;;;;;16.92;11.57;;;;;;;9.97;100.00;98681.53;2568669;28;20058;-89
2023/04/30 03:04:51;;;;;;;17.92;11.88;;;;;;;9.94;100.00;98687.72;2567754;28;20054;-89
2023/04/30 03:06:07;;;;;;;17.67;12.07;;;;;;;9.97;100.00;98682.41;2569704;28;20069;-88
2023/04/30 03:07:22;;;;;;;19.42;12.55;;;;;;;9.99;100.00;98685.84;2569523;28;20150;-90
2023/04/30 03:08:38;;;;;;;21.02;12.80;;;;;;;10.09;100.00;98686.50;2570107;28;20502;-88
2023/04/30 03:09:53;;;;;;;19.20;12.32;;;;;;;10.10;100.00;98697.84;2570278;28;20046;-87
2023/04/30 03:11:09;;;;;;;22.05;13.90;;;;;;;10.15;100.00;98690.72;2570353;28;20054;-90
2023/04/30 03:12:25;;;;;;;20.83;13.85;;;;;;;10.10;100.00;98692.59;2571543;28;20114;-90
2023/04/30 03:13:41;;;;;;;19.42;12.38;;;;;;;10.11;100.00;98692.53;2571662;28;20110;-87
2023/04/30 03:14:57;;;;;;;20.35;12.88;;;;;;;10.08;100.00;98697.84;2571218;28;20613;-88
2023/04/30 03:16:13;;;;;;;19.83;13.07;;;;;;;10.06;100.00;98688.31;2571842;28;20055;-88
2023/04/30 03:17:28;;;;;;;20.95;13.63;;;;;;;10.08;100.00;98697.84;2571954;28;20058;-89
2023/04/30 03:18:44;;;;;;;21.48;13.13;;;;;;;9.94;100.00;98694.69;2571337;28;20098;-88
2023/04/30 03:20:00;;;;;;;23.05;13.85;;;;;;;9.90;100.00;98691.25;2572023;28;20157;-88
2023/04/30 03:21:16;;;;;;;21.88;14.80;;;;;;;10.06;100.00;98696.16;2580552;28;20097;-88
2023/04/30 03:22:31;;;;;;;20.90;13.57;;;;;;;10.04;100.00;98698.81;2577095;28;20062;-88
2023/04/30 03:23:47;;;;;;;21.42;14.25;;;;;;;9.98;100.00;98702.44;2571062;28;20058;-89
2023/04/30 03:25:03;;;;;;;21.30;14.07;;;;;;;9.99;100.00;98700.69;2570815;28;20050;-87
2023/04/30 03:26:19;;;;;;;25.02;13.98;;;;;;;10.07;100.00;98700.53;2570617;28;20057;-88
2023/04/30 03:27:35;;;;;;;20.73;13.68;;;;;;;10.09;100.00;98703.97;2578883;28;20357;-89
2023/04/30 03:28:50;;;;;;;20.67;13.50;;;;;;;10.07;100.00;98701.38;2575891;28;20066;-88
2023/04/30 03:30:06;;;;;;;20.50;13.63;;;;;;;10.05;100.00;98705.78;2568059;28;20063;-89
2023/04/30 03:31:22;;;;;;;22.48;13.73;;;;;;;9.97;100.00;98702.44;2568223;28;20690;-88
2023/04/30 03:32:38;;;;;;;23.23;13.75;;;;;;;10.11;100.00;98705.63;2557699;29;20063;-88
2023/04/30 03:33:53;;;;;;;19.65;13.23;;;;;;;10.17;100.00;98707.25;2561707;28;20510;-88
2023/04/30 03:35:09;;;;;;;22.55;14.23;;;;;;;10.20;100.00;98706.34;2568508;28;20054;-88
2023/04/30 03:36:26;;;;;;;21.08;14.73;;;;;;;10.24;100.00;98705.34;2567458;28;20082;-89
2023/04/30 03:37:41;;;;;;;19.40;13.35;;;;;;;10.32;100.00;98703.44;2568383;28;20062;-89
2023/04/30 03:38:57;;;;;;;22.02;13.57;;;;;;;10.29;100.00;98703.53;2567694;28;20062;-89
2023/04/30 03:40:13;;;;;;;18.58;12.98;;;;;;;10.24;100.00;98703.63;2568575;28;20058;-88
2023/04/30 03:41:28;;;;;;;18.33;13.13;;;;;;;10.20;100.00;98703.72;2568131;28;20047;-89
2023/04/30 03:42:44;;;;;;;19.90;12.90;;;;;;;10.06;100.00;98704.88;2568429;28;20506;-89
2023/04/30 03:43:59;;;;;;;21.52;13.98;;;;;;;10.05;100.00;98705.78;2567814;28;20046;-89
2023/04/30 03:45:15;;;;;;;20.80;13.32;;;;;;;10.14;100.00;98705.59;2568593;28;20086;-89
2023/04/30 03:46:31;;;;;;;23.35;14.63;;;;;;;10.16;100.00;98710.75;2567961;28;20054;-89
2023/04/30 03:47:47;;;;;;;22.45;14.05;;;;;;;10.21;100.00;98705.44;2568244;28;20062;-89
2023/04/30 03:49:03;;;;;;;21.65;13.73;;;;;;;10.22;100.00;98707.16;2567667;28;20058;-88
2023/04/30 03:50:18;;;;;;;19.13;13.13;;;;;;;10.17;100.00;98708.13;2568379;28;20080;-89
2023/04/30 03:51:38;;;;;;;23.35;14.32;;;;;;;10.15;100.00;98714.28;2567721;28;20066;-89
2023/04/30 03:52:54;;;;;;;21.58;13.15;;;;;;;10.11;100.00;98712.63;2568190;28;20047;-89
2023/04/30 03:54:09;;;;;;;21.58;14.00;;;;;;;10.14;100.00;98712.56;2568170;28;20061;-89
2023/04/30 03:55:25;;;;;;;19.30;13.13;;;;;;;10.02;100.00;98708.47;2568235;28;20070;-90
2023/04/30 03:56:41;;;;;;;22.77;14.15;;;;;;;10.11;100.00;98710.84;2567351;28;20537;-87
2023/04/30 03:57:57;;;;;;;21.63;13.32;;;;;;;10.16;100.00;98713.38;2568269;28;20671;-88
2023/04/30 03:59:12;;;;;;;18.63;13.63;;;;;;;10.22;100.00;98712.38;2568047;28;20054;-89
2023/04/30 04:00:28;;;;;;;25.92;13.70;;;;;;;10.18;100.00;98717.69;2567981;28;20449;-89
2023/04/30 04:01:44;;;;;;;20.83;13.95;;;;;;;10.09;100.00;98711.81;2567464;28;20065;-90
2023/04/30 04:02:59;;;;;;;20.67;13.68;;;;;;;10.14;100.00;98715.19;2568560;28;20186;-88
2023/04/30 04:04:15;;;;;;;20.08;13.15;;;;;;;10.24;100.00;98715.81;2567943;28;20050;-89
2023/04/30 04:05:31;;;;;;;21.13;12.98;;;;;;;10.25;100.00;98715.81;2567668;28;20070;-88
2023/04/30 04:06:46;;;;;;;23.50;13.85;;;;;;;10.25;100.00;98717.53;2567419;28;20163;-89
2023/04/30 04:08:02;;;;;;;22.38;13.95;;;;;;;10.21;100.00;98719.41;2567819;28;20422;-89
2023/04/30 04:09:17;;;;;;;19.55;13.35;;;;;;;10.16;100.00;98721.22;2568278;28;20066;-89
2023/04/30 04:10:37;;;;;;;21.25;13.10;;;;;;;10.30;100.00;98727.03;2568811;28;20509;-89
2023/04/30 04:11:52;;;;;;;24.90;15.68;;;;;;;10.33;100.00;98720.88;2568958;28;20118;-89
2023/04/30 04:13:08;;;;;;;19.23;12.82;;;;;;;10.37;100.00;98722.50;2567604;28;20054;-89
2023/04/30 04:14:23;;;;;;;18.95;12.43;;;;;;;10.42;100.00;98725.06;2568379;28;20063;-89
2023/04/30 04:15:39;;;;;;;16.52;11.60;;;;;;;10.44;100.00;98726.75;2557093;29;20059;-89
2023/04/30 04:16:56;;;;;;;19.52;11.68;;;;;;;10.40;100.00;98726.81;2561687;28;20054;-89
2023/04/30 04:18:12;;;;;;;18.50;12.80;;;;;;;10.17;100.00;98725.56;2567447;28;20082;-89
2023/04/30 04:19:27;;;;;;;18.90;12.93;;;;;;;10.08;100.00;98724.00;2568275;28;20098;-90
2023/04/30 04:20:43;;;;;;;19.75;13.02;;;;;;;10.07;100.00;98730.16;2567618;28;20059;-90
2023/04/30 04:21:58;;;;;;;21.00;12.88;;;;;;;10.30;100.00;98727.03;2568599;28;20062;-89
2023/04/30 04:23:15;;;;;;;16.33;11.90;;;;;;;10.45;100.00;98730.22;2568582;28;20090;-90
2023/04/30 04:24:32;;;;;;;18.73;12.38;;;;;;;10.38;100.00;98728.63;2568800;28;20085;-89
2023/04/30 04:25:51;;;;;;;19.35;12.98;;;;;;;10.27;100.00;98734.09;2557264;29;20055;-89
2023/04/30 04:27:06;;;;;;;21.58;13.60;;;;;;;10.10;100.00;98731.84;2562623;28;20128;-90
2023/04/30 04:28:22;;;;;;;22.30;13.32;;;;;;;10.16;100.00;98735.19;2568269;28;20190;-89
2023/04/30 04:29:37;;;;;;;24.33;14.70;;;;;;;10.34;100.00;98740.91;2568890;28;20126;-90
2023/04/30 04:30:53;;;;;;;24.45;14.20;;;;;;;10.26;100.00;98734.97;2568275;28;20494;-89
2023/04/30 04:32:09;;;;;;;23.38;14.80;;;;;;;10.37;100.00;98742.59;2568875;28;20069;-90
2023/04/30 04:33:24;;;;;;;21.42;14.18;;;;;;;10.53;100.00;98738.78;2567873;28;20050;-90
2023/04/30 04:34:41;;;;;;;23.55;15.15;;;;;;;10.43;100.00;98745.09;2557617;29;20051;-89
2023/04/30 04:35:58;;;;;;;22.30;13.52;;;;;;;10.45;100.00;98745.91;2548920;29;20139;-89
2023/04/30 04:37:14;;;;;;;24.85;15.00;;;;;;;10.51;100.00;98750.16;2561925;28;20481;-89
2023/04/30 04:38:29;;;;;;;21.23;14.00;;;;;;;10.69;100.00;98746.25;2567325;28;20054;-89
2023/04/30 04:39:45;;;;;;;23.95;14.60;;;;;;;10.63;100.00;98755.13;2568633;28;20060;-90
2023/04/30 04:41:01;;;;;;;22.45;14.45;;;;;;;10.60;100.00;98752.56;2567974;28;20058;-89
2023/04/30 04:42:16;;;;;;;22.20;13.80;;;;;;;10.51;100.00;98752.78;2567951;28;20058;-90
2023/04/30 04:43:32;;;;;;;23.52;14.45;;;;;;;10.52;100.00;98754.50;2567781;28;20090;-89
2023/04/30 04:44:48;;;;;;;24.60;13.73;;;;;;;10.67;100.00;98756.75;2568133;28;20066;-90
2023/04/30 04:46:04;;;;;;;23.83;13.75;;;;;;;10.65;100.00;98747.25;2568385;28;20047;-90
2023/04/30 04:47:20;;;;;;;21.70;13.98;;;;;;;10.52;100.00;98755.38;2567972;28;20464;-89
2023/04/30 04:48:36;;;;;;;23.08;14.70;;;;;;;10.52;100.00;98749.25;2570266;28;20217;-90
2023/04/30 04:49:51;;;;;;;19.20;12.82;;;;;;;10.85;100.00;98754.63;2569673;28;20370;-90
2023/04/30 04:51:07;;;;;;;21.73;13.55;;;;;;;10.50;100.00;98754.56;2569839;28;20054;-90
2023/04/30 04:52:23;;;;;;;20.98;13.38;;;;;;;10.59;100.00;98759.56;2569173;28;20059;-90
2023/04/30 04:53:38;;;;;;;18.60;13.63;;;;;;;10.71;100.00;98749.69;2570318;28;20146;-90
2023/04/30 04:54:54;;;;;;;21.08;13.95;;;;;;;10.63;100.00;98759.50;2578700;28;20058;-91
2023/04/30 04:56:10;;;;;;;20.67;13.85;;;;;;;10.87;100.00;98763.31;2575186;28;20058;-90
2023/04/30 04:57:26;;;;;;;22.23;14.30;;;;;;;10.95;100.00;98760.50;2569549;28;21166;-90
2023/04/30 04:58:43;;;;;;;22.63;13.95;;;;;;;11.01;100.00;98761.22;2570554;28;20470;-90
2023/04/30 04:59:58;;;;;;;23.55;14.38;;;;;;;10.97;100.00;98763.94;2569019;28;20081;-90
2023/04/30 05:01:14;;;;;;;22.80;13.77;;;;;;;10.66;100.00;98764.66;2570395;28;20058;-91
2023/04/30 05:02:30;;;;;;;25.42;14.73;;;;;;;10.79;100.00;98760.88;2569347;28;20074;-90
2023/04/30 05:03:46;;;;;;;23.60;13.90;;;;;;;10.99;100.00;98765.63;2559092;29;20054;-90
2023/04/30 05:05:01;;;;;;;23.63;14.25;;;;;;;10.67;100.00;98766.38;2561321;28;20061;-90
2023/04/30 05:06:17;;;;;;;23.02;14.70;;;;;;;10.76;100.00;98768.81;2570058;28;20058;-90
2023/04/30 05:07:34;;;;;;;25.48;15.25;;;;;;;10.81;100.00;98761.69;2569365;28;20059;-90
2023/04/30 05:08:49;;;;;;;24.00;15.07;;;;;;;10.96;100.00;98763.06;2569627;28;20548;-90
2023/04/30 05:10:06;;;;;;;23.15;15.13;;;;;;;11.00;100.00;98763.84;2569457;28;20113;-90
2023/04/30 05:11:22;;;;;;;26.17;14.70;;;;;;;11.10;100.00;98760.13;2569798;28;20054;-90
2023/04/30 05:12:37;;;;;;;19.02;12.25;;;;;;;11.08;100.00;98772.41;2568892;28;20059;-89
2023/04/30 05:13:53;;;;;;;25.23;15.32;;;;;;;11.11;100.00;98774.94;2569984;28;20063;-89
2023/04/30 05:15:09;;;;;;;23.52;14.73;;;;;;;11.30;100.00;98770.09;2569455;28;20104;-90
2023/04/30 05:16:25;;;;;;;22.85;14.75;;;;;;;11.18;100.00;98774.81;2569270;28;20498;-90
2023/04/30 05:17:41;;;;;;;24.40;14.55;;;;;;;11.21;100.00;98778.19;2569366;28;20107;-90
2023/04/30 05:18:56;;;;;;;23.48;14.00;;;;;;;11.07;100.00;98780.28;2569376;28;20411;-90
2023/04/30 05:20:12;;;;;;;24.27;14.98;;;;;;;11.10;100.00;98775.84;2569909;28;20500;-90
2023/04/30 05:21:28;;;;;;;20.85;13.75;;;;;;;11.00;100.00;98780.44;2568976;28;20067;-90
2023/04/30 05:22:44;;;;;;;25.23;15.02;;;;;;;11.18;100.00;98782.66;2569885;28;20055;-90
2023/04/30 05:23:59;;;;;;;25.67;15.32;;;;;;;11.21;100.00;98786.03;2569026;28;20391;-90
2023/04/30 05:25:15;;;;;;;24.00;14.40;;;;;;;11.08;100.00;98776.75;2569471;28;20078;-90
2023/04/30 05:26:31;;;;;;;24.13;15.40;;;;;;;11.06;100.00;98778.56;2569288;28;20525;-90
2023/04/30 05:27:46;;;;;;;20.90;14.63;;;;;;;11.23;100.00;98780.78;2569839;28;20109;-90
2023/04/30 05:29:03;;;;;;;23.10;14.43;;;;;;;11.27;100.00;98778.03;2568682;28;20058;-91
2023/04/30 05:30:18;;;;;;;23.55;14.90;;;;;;;11.38;100.00;98779.50;2569482;28;20117;-90
2023/04/30 05:31:34;;;;;;;22.08;14.85;;;;;;;11.20;100.00;98783.47;2568937;28;20054;-91
2023/04/30 05:32:51;;;;;;;23.88;14.55;;;;;;;10.99;100.00;98783.97;2569042;28;20101;-90
2023/04/30 05:34:08;;;;;;;24.23;14.98;;;;;;;11.12;100.00;98789.75;2568498;28;20106;-91
2023/04/30 05:35:23;;;;;;;21.73;13.32;;;;;;;11.03;100.00;98792.59;2569795;28;20406;-90
2023/04/30 05:36:39;;;;;;;23.63;14.60;;;;;;;11.23;100.00;98780.78;2569124;28;20466;-90
2023/04/30 05:37:54;;;;;;;21.75;12.93;;;;;;;11.16;100.00;98783.53;2569302;28;20062;-91
2023/04/30 05:39:10;;;;;;;22.67;13.50;;;;;;;11.21;100.00;98788.66;2569015;28;20054;-90
2023/04/30 05:40:28;;;;;;;19.60;12.18;;;;;;;11.00;100.00;98792.66;2569765;28;20051;-90
2023/04/30 05:41:43;;;;;;;18.02;11.57;;;;;;;11.08;100.00;98789.88;2568737;28;20057;-89
2023/04/30 05:42:58;;;;;;;21.00;13.55;;;;;;;11.20;100.00;98793.97;2569622;28;20055;-89
2023/04/30 05:44:14;;;;;;;21.10;13.27;;;;;;;11.19;100.00;98794.88;2569236;28;20089;-89
2023/04/30 05:45:30;;;;;;;22.60;13.95;;;;;;;11.33;100.00;98792.75;2569311;28;20418;-89
2023/04/30 05:46:45;;;;;;;19.55;13.25;;;;;;;11.44;100.00;98795.94;2568364;28;20057;-88
2023/04/30 05:48:01;;;;;;;18.65;12.68;;;;;;;11.17;100.00;98792.28;2569276;28;20058;-89
2023/04/30 05:49:17;;;;;;;20.30;13.50;;;;;;;11.39;100.00;98792.59;2568809;28;20058;-90
2023/04/30 05:50:32;;;;;;;22.25;12.27;;;;;;;11.35;100.00;98790.06;2568645;28;20058;-89
2023/04/30 05:51:48;;;;;;;16.98;11.80;;;;;;;11.30;100.00;98783.19;2569034;28;20425;-89